Time;durP1;ratioP1;P1;durP2;ratioP2;P2;SDS_P1;SDS_P2;PMS_P1;PMS_P2;Temp;Humidity;BMP_temperature;BMP_pressure;BME280_temperature;BME280_humidity;BME280_pressure;Samples;Min_cycle;Max_cycle;Signal;HPM_P1;HPM_P2
2021/12/11 00:02:25;;;;;;;6.18;4.88;;;;;;;2.43;100.00;62246.72;5064563;28;20212;-77
2021/12/11 00:04:56;;;;;;;8.25;4.97;;;;;;;2.46;100.00;62247.81;5061754;28;20205;-78
2021/12/11 00:07:25;;;;;;;6.97;4.00;;;;;;;2.38;100.00;62246.63;5064877;28;20514;-78
2021/12/11 00:09:56;;;;;;;4.78;3.40;;;;;;;2.43;100.00;62244.22;5057312;28;20238;-76
2021/12/11 00:12:27;;;;;;;3.13;2.78;;;;;;;2.43;100.00;62244.22;5061219;28;20239;-76
2021/12/11 00:14:58;;;;;;;3.40;2.80;;;;;;;2.35;100.00;62239.03;5060892;28;20224;-77
2021/12/11 00:17:28;;;;;;;6.85;4.88;;;;;;;2.32;100.00;62238.97;5063215;28;20254;-76
2021/12/11 00:19:55;;;;;;;15.30;7.70;;;;;;;2.33;100.00;62239.47;5065743;28;20223;-78
2021/12/11 00:22:24;;;;;;;8.65;5.60;;;;;;;2.43;100.00;62249.75;5059201;28;20404;-77
2021/12/11 00:24:57;;;;;;;8.20;6.28;;;;;;;2.33;100.00;62237.50;5056783;28;20209;-77
2021/12/11 00:27:27;;;;;;;9.00;7.32;;;;;;;2.36;100.00;62240.06;5050269;28;20198;-77
2021/12/11 00:29:55;;;;;;;8.70;6.85;;;;;;;2.34;100.00;62238.53;5054462;28;20529;-77
2021/12/11 00:32:25;;;;;;;5.85;4.65;;;;;;;2.34;100.00;62235.50;5064076;28;20256;-78
2021/12/11 00:34:54;;;;;;;7.63;4.47;;;;;;;2.30;100.00;62234.41;5064203;28;20533;-77
2021/12/11 00:37:24;;;;;;;2.97;2.78;;;;;;;2.25;100.00;62228.75;5052522;28;20221;-77
2021/12/11 00:39:55;;;;;;;2.80;2.60;;;;;;;2.29;100.00;62235.38;5066391;28;20532;-77
2021/12/11 00:42:24;;;;;;;3.00;2.78;;;;;;;2.27;100.00;62231.34;5062944;28;20518;-77
2021/12/11 00:44:54;;;;;;;7.75;5.10;;;;;;;2.24;100.00;62225.22;5062372;28;20431;-76
2021/12/11 00:47:25;;;;;;;7.38;5.60;;;;;;;2.22;100.00;62225.69;5054781;28;20198;-77
2021/12/11 00:49:54;;;;;;;9.82;6.28;;;;;;;2.28;100.00;62232.34;5063495;28;20206;-78
2021/12/11 00:52:29;;;;;;;7.88;6.22;;;;;;;2.36;100.00;62237.56;5064146;28;20259;-77
2021/12/11 00:54:58;;;;;;;5.75;4.28;;;;;;;2.31;100.00;62240.44;5065112;28;20438;-77
2021/12/11 00:57:25;;;;;;;4.40;3.63;;;;;;;2.28;100.00;62231.84;5063486;28;20204;-77
2021/12/11 01:00:00;;;;;;;5.13;3.35;;;;;;;2.30;100.00;62236.41;5060524;28;20209;-78
2021/12/11 01:02:27;;;;;;;4.20;3.55;;;;;;;2.37;100.00;62243.59;5061093;28;20224;-77
2021/12/11 01:04:54;;;;;;;4.22;3.40;;;;;;;2.43;100.00;62252.28;5053259;28;20552;-77
2021/12/11 01:07:24;;;;;;;6.53;3.53;;;;;;;2.32;100.00;62236.47;5056918;28;20213;-77
2021/12/11 01:09:54;;;;;;;4.07;3.65;;;;;;;2.47;100.00;62253.38;5062979;28;20201;-77
2021/12/11 01:12:27;;;;;;;6.30;4.32;;;;;;;2.54;100.00;62258.03;5065250;28;20233;-76
2021/12/11 01:15:07;;;;;;;3.03;2.67;;;;;;;2.60;100.00;62266.72;5067062;28;20209;-77
2021/12/11 01:17:43;;;;;;;4.30;2.83;;;;;;;2.69;100.00;62273.97;5063887;28;20229;-77
2021/12/11 01:20:17;;;;;;;2.30;2.17;;;;;;;2.82;100.00;62286.78;5058874;28;20518;-76
2021/12/11 01:22:45;;;;;;;5.68;2.90;;;;;;;2.95;100.00;62300.66;5054470;28;20225;-78
2021/12/11 01:25:15;;;;;;;3.50;2.38;;;;;;;2.97;100.00;62304.75;5053061;28;20198;-76
2021/12/11 01:27:48;;;;;;;2.70;2.38;;;;;;;2.95;100.00;62297.66;5065071;28;20453;-77
2021/12/11 01:30:20;;;;;;;3.00;2.58;;;;;;;2.94;100.00;62297.13;5064825;28;20243;-77
2021/12/11 01:32:46;;;;;;;3.00;2.80;;;;;;;2.94;100.00;62296.63;5069031;28;20240;-77
2021/12/11 01:35:17;;;;;;;3.33;2.50;;;;;;;3.00;100.00;62305.31;5062966;28;20233;-77
2021/12/11 01:37:46;;;;;;;2.75;2.53;;;;;;;2.98;100.00;62303.25;5053284;28;20419;-76
2021/12/11 01:40:16;;;;;;;3.97;3.30;;;;;;;2.98;100.00;62300.72;5064791;28;20201;-76
2021/12/11 01:42:45;;;;;;;9.68;4.10;;;;;;;2.98;100.00;62300.72;5065600;28;20221;-77
2021/12/11 01:45:14;;;;;;;3.95;3.60;;;;;;;2.97;100.00;62305.25;5062982;28;20669;-77
2021/12/11 01:47:44;;;;;;;4.25;3.33;;;;;;;2.92;100.00;62297.06;5051618;28;20252;-76
2021/12/11 01:50:16;;;;;;;3.25;2.95;;;;;;;2.91;100.00;62296.56;5053458;28;20197;-77
2021/12/11 01:52:47;;;;;;;4.38;3.10;;;;;;;2.89;100.00;62294.50;5067127;28;20245;-76
2021/12/11 01:55:21;;;;;;;3.08;2.58;;;;;;;2.91;100.00;62293.53;5065732;28;20237;-77
2021/12/11 01:57:52;;;;;;;4.70;4.30;;;;;;;2.84;100.00;62289.38;5061680;28;20546;-77
2021/12/11 02:00:23;;;;;;;3.78;3.42;;;;;;;2.89;100.00;62296.50;5066883;28;20213;-77
2021/12/11 02:02:54;;;;;;;4.20;3.80;;;;;;;2.82;100.00;62287.31;5066562;28;20240;-78
2021/12/11 02:05:24;;;;;;;4.70;3.05;;;;;;;2.82;100.00;62292.34;5050565;28;20502;-77
2021/12/11 02:07:55;;;;;;;3.40;2.92;;;;;;;2.83;100.00;62290.84;5052338;28;20420;-76
2021/12/11 02:10:26;;;;;;;2.88;2.58;;;;;;;2.79;100.00;62283.72;5066156;28;20243;-77
2021/12/11 02:12:56;;;;;;;1.95;1.80;;;;;;;2.74;100.00;62279.09;5053557;28;20455;-77
2021/12/11 02:15:28;;;;;;;1.60;1.50;;;;;;;2.72;100.00;62282.06;5063338;28;20211;-76
2021/12/11 02:18:00;;;;;;;1.70;1.60;;;;;;;2.81;100.00;62286.28;5061248;28;20259;-77
2021/12/11 02:20:31;;;;;;;3.00;1.60;;;;;;;2.71;100.00;62281.03;5066677;28;20196;-77
2021/12/11 02:23:00;;;;;;;4.20;3.35;;;;;;;2.61;100.00;62267.72;5063424;28;20561;-76
2021/12/11 02:25:30;;;;;;;2.72;2.00;;;;;;;2.64;100.00;62273.84;5066430;28;20205;-77
2021/12/11 02:28:00;;;;;;;1.85;1.75;;;;;;;2.70;100.00;62274.47;5056970;28;20263;-77
2021/12/11 02:30:33;;;;;;;1.17;1.17;;;;;;;2.64;100.00;62270.81;5063886;28;20239;-76
2021/12/11 02:33:07;;;;;;;1.08;1.08;;;;;;;2.68;100.00;62274.91;5066144;28;20247;-77
2021/12/11 02:35:39;;;;;;;1.40;1.30;;;;;;;2.68;100.00;62272.94;5065638;28;20239;-77
2021/12/11 02:38:17;;;;;;;1.85;1.30;;;;;;;2.70;100.00;62277.50;5060597;28;20247;-76
2021/12/11 02:40:48;;;;;;;1.20;1.20;;;;;;;2.71;100.00;62278.03;5049519;28;20194;-76
2021/12/11 02:43:20;;;;;;;1.60;1.23;;;;;;;2.79;100.00;62286.22;5058316;28;20599;-77
2021/12/11 02:45:52;;;;;;;1.17;1.17;;;;;;;2.82;100.00;62289.81;5065909;28;20201;-76
2021/12/11 02:48:23;;;;;;;2.92;1.45;;;;;;;2.88;100.00;62295.47;5067002;28;20241;-76
2021/12/11 02:50:54;;;;;;;1.55;0.93;;;;;;;2.97;100.00;62304.75;5071208;28;20201;-77
2021/12/11 02:53:26;;;;;;;0.95;0.95;;;;;;;3.01;100.00;62313.88;5066153;28;20245;-77
2021/12/11 02:56:04;;;;;;;1.17;1.13;;;;;;;3.16;100.00;62324.25;5062559;28;20243;-77
2021/12/11 02:58:34;;;;;;;2.83;1.27;;;;;;;3.29;100.00;62335.63;5066131;28;20275;-77
2021/12/11 03:01:20;;;;;;;1.40;1.40;;;;;;;3.38;100.00;62347.38;5063834;28;20221;-77
2021/12/11 03:03:52;;;;;;;1.20;1.02;;;;;;;3.54;100.00;62363.84;5054425;28;20482;-77
2021/12/11 03:06:23;;;;;;;0.82;0.82;;;;;;;3.68;100.00;62377.19;5063896;28;20212;-77
2021/12/11 03:08:53;;;;;;;0.82;0.82;;;;;;;3.73;100.00;62385.38;5082124;28;20584;-76
2021/12/11 03:11:24;;;;;;;0.82;0.82;;;;;;;3.79;100.00;62384.00;5065402;28;20254;-77
2021/12/11 03:13:54;;;;;;;1.15;1.15;;;;;;;3.80;100.00;62387.03;5064532;28;20537;-78
2021/12/11 03:16:24;;;;;;;1.35;1.35;;;;;;;3.82;100.00;62387.09;5061575;28;20193;-76
2021/12/11 03:18:52;;;;;;;1.40;1.30;;;;;;;3.90;100.00;62399.84;5064862;28;20229;-77
2021/12/11 03:21:19;;;;;;;2.00;1.42;;;;;;;3.90;100.00;62402.84;5065038;28;20205;-76
2021/12/11 03:23:47;;;;;;;1.10;1.10;;;;;;;3.91;100.00;62400.88;5064061;28;20225;-76
2021/12/11 03:26:15;;;;;;;1.13;1.13;;;;;;;3.90;100.00;62402.34;5053641;28;20847;-76
2021/12/11 03:28:42;;;;;;;1.77;1.50;;;;;;;3.91;100.00;62401.38;5062986;28;20224;-76
2021/12/11 03:31:09;;;;;;;1.17;1.17;;;;;;;3.81;100.00;62388.59;5065199;28;20205;-76
2021/12/11 03:33:39;;;;;;;1.25;1.25;;;;;;;3.89;100.00;62396.81;5064940;28;20541;-76
2021/12/11 03:36:08;;;;;;;1.50;1.40;;;;;;;3.80;100.00;62389.53;5050605;28;20200;-77
2021/12/11 03:38:37;;;;;;;1.40;1.40;;;;;;;3.86;100.00;62390.69;5050207;28;20301;-77
2021/12/11 03:41:05;;;;;;;2.25;1.20;;;;;;;3.85;100.00;62397.22;5064754;28;20202;-77
2021/12/11 03:43:35;;;;;;;1.80;1.70;;;;;;;3.90;100.00;62399.84;5071429;28;20217;-77
2021/12/11 03:46:09;;;;;;;3.17;1.80;;;;;;;3.80;100.00;62392.06;5064237;28;20205;-76
2021/12/11 03:48:40;;;;;;;2.20;2.00;;;;;;;3.68;100.00;62372.16;5050235;28;20233;-77
2021/12/11 03:51:09;;;;;;;1.85;1.75;;;;;;;3.57;100.00;62363.38;5065522;28;20201;-77
2021/12/11 03:53:38;;;;;;;1.65;1.55;;;;;;;3.49;100.00;62358.69;5060047;28;20462;-77
2021/12/11 03:56:08;;;;;;;1.50;1.40;;;;;;;3.53;100.00;62365.34;5045180;28;20194;-77
2021/12/11 03:58:37;;;;;;;1.63;1.52;;;;;;;3.49;100.00;62358.69;5058604;28;20293;-76
2021/12/11 04:01:09;;;;;;;1.83;1.73;;;;;;;3.49;100.00;62353.66;5063242;28;20251;-77
2021/12/11 04:03:38;;;;;;;1.45;1.35;;;;;;;3.61;100.00;62368.00;5062681;28;20225;-76
2021/12/11 04:06:09;;;;;;;1.50;1.48;;;;;;;3.77;100.00;62381.94;5078149;28;20205;-77
2021/12/11 04:08:40;;;;;;;1.27;1.17;;;;;;;3.67;100.00;62374.19;5051954;28;20229;-77
2021/12/11 04:11:08;;;;;;;1.60;1.52;;;;;;;3.68;100.00;62372.16;5064306;28;20269;-78
2021/12/11 04:13:38;;;;;;;1.63;1.58;;;;;;;3.71;100.00;62377.78;5064354;28;20451;-77
2021/12/11 04:16:07;;;;;;;3.17;1.80;;;;;;;3.76;100.00;62385.97;5045152;28;20194;-77
2021/12/11 04:18:34;;;;;;;1.60;1.50;;;;;;;3.76;100.00;62380.94;5064035;28;20257;-76
2021/12/11 04:21:01;;;;;;;1.77;1.67;;;;;;;3.83;100.00;62393.13;5060307;28;20209;-77
2021/12/11 04:23:28;;;;;;;1.77;1.67;;;;;;;3.83;100.00;62393.13;5064874;28;20225;-77
2021/12/11 04:25:57;;;;;;;2.97;1.40;;;;;;;3.74;100.00;62383.38;5065284;28;20238;-77
2021/12/11 04:28:25;;;;;;;1.80;1.50;;;;;;;3.70;100.00;62376.75;5062427;28;20591;-78
2021/12/11 04:31:02;;;;;;;2.10;1.33;;;;;;;3.71;100.00;62380.31;5061118;28;20270;-78
2021/12/11 04:33:29;;;;;;;1.33;1.33;;;;;;;3.52;100.00;62359.25;5065959;28;20605;-79
2021/12/11 04:35:56;;;;;;;1.75;1.65;;;;;;;3.40;100.00;62351.97;5071013;28;20205;-78
2021/12/11 04:38:23;;;;;;;1.63;1.52;;;;;;;3.28;100.00;62337.09;5068829;28;20305;-78
2021/12/11 04:40:54;;;;;;;1.88;1.77;;;;;;;3.14;100.00;62322.72;5064665;28;20497;-79
2021/12/11 04:43:23;;;;;;;1.77;1.67;;;;;;;3.08;100.00;62314.03;5055026;28;20222;-78
2021/12/11 04:45:57;;;;;;;1.60;1.55;;;;;;;3.01;100.00;62309.34;5067203;28;20373;-78
2021/12/11 04:48:35;;;;;;;1.58;1.42;;;;;;;2.91;100.00;62294.06;5069172;28;20225;-79
2021/12/11 04:51:11;;;;;;;1.77;1.67;;;;;;;2.89;100.00;62299.53;5055901;28;20205;-78
2021/12/11 04:53:51;;;;;;;2.20;2.05;;;;;;;2.87;100.00;62291.94;5065302;28;20486;-77
2021/12/11 04:59:22;;;;;;;2.53;2.42;;;;;;;2.81;100.00;62286.28;5054773;28;20229;-77
2021/12/11 05:02:03;;;;;;;2.40;2.30;;;;;;;2.76;100.00;62283.66;5059688;28;20221;-78
2021/12/11 05:04:48;;;;;;;2.05;1.95;;;;;;;2.75;100.00;62282.63;5057309;28;20230;-77
2021/12/11 05:07:34;;;;;;;1.77;1.67;;;;;;;2.72;100.00;62274.00;5068742;28;20243;-77
2021/12/11 05:10:12;;;;;;;1.92;1.70;;;;;;;2.74;100.00;62279.09;5067205;28;20213;-77
2021/12/11 05:12:40;;;;;;;2.13;1.83;;;;;;;2.71;100.00;62280.53;5057681;28;20237;-77
2021/12/11 05:15:10;;;;;;;2.08;1.98;;;;;;;2.80;100.00;62285.25;5069082;28;20206;-77
2021/12/11 05:17:38;;;;;;;2.47;2.30;;;;;;;2.84;100.00;62291.88;5084143;28;20225;-77
2021/12/11 05:20:07;;;;;;;1.88;1.77;;;;;;;2.75;100.00;62282.63;5072923;28;20205;-78
2021/12/11 05:22:34;;;;;;;2.40;2.20;;;;;;;2.85;100.00;62290.41;5075895;28;20259;-78
2021/12/11 05:25:01;;;;;;;1.50;1.50;;;;;;;2.91;100.00;62303.59;5071301;28;20228;-78
2021/12/11 05:27:28;;;;;;;2.63;2.42;;;;;;;2.96;100.00;62304.22;5066490;28;20202;-78
2021/12/11 05:29:55;;;;;;;2.25;2.05;;;;;;;2.97;100.00;62305.25;5054486;28;20202;-79
2021/12/11 05:32:25;;;;;;;3.40;2.00;;;;;;;2.94;100.00;62297.13;5069808;28;20233;-78
2021/12/11 05:34:57;;;;;;;1.77;1.67;;;;;;;2.94;100.00;62299.13;5056540;28;20229;-78
2021/12/11 05:37:25;;;;;;;4.53;2.33;;;;;;;3.08;100.00;62316.56;5055123;28;20201;-78
2021/12/11 05:39:52;;;;;;;2.70;2.50;;;;;;;3.18;100.00;62326.31;5075090;28;20254;-77
2021/12/11 05:42:19;;;;;;;2.33;2.22;;;;;;;2.97;100.00;62304.75;5067423;28;20205;-78
2021/12/11 05:44:46;;;;;;;3.17;2.97;;;;;;;2.99;100.00;62306.78;5067113;28;20197;-77
2021/12/11 05:47:14;;;;;;;2.95;2.75;;;;;;;3.01;100.00;62306.31;5068128;28;20214;-78
2021/12/11 05:49:44;;;;;;;3.38;2.97;;;;;;;3.00;100.00;62305.81;5069161;28;20209;-78
2021/12/11 05:52:13;;;;;;;3.65;3.13;;;;;;;3.03;100.00;62310.91;5070595;28;20206;-78
2021/12/11 05:54:43;;;;;;;3.10;2.90;;;;;;;3.13;100.00;62324.19;5057492;28;20204;-78
2021/12/11 05:57:14;;;;;;;3.17;2.97;;;;;;;2.98;100.00;62308.78;5067127;28;20193;-77
2021/12/11 05:59:45;;;;;;;3.17;2.88;;;;;;;2.96;100.00;62301.69;5068487;28;20204;-78
2021/12/11 06:02:16;;;;;;;4.90;3.83;;;;;;;3.01;100.00;62309.34;5066701;28;20192;-78
2021/12/11 06:04:45;;;;;;;2.88;2.65;;;;;;;3.12;100.00;62320.66;5076513;28;20383;-78
2021/12/11 06:07:15;;;;;;;3.83;3.40;;;;;;;3.18;100.00;62318.75;5065257;28;20205;-78
2021/12/11 06:09:44;;;;;;;5.88;3.38;;;;;;;3.24;100.00;62330.50;5067627;28;20216;-78
2021/12/11 06:12:13;;;;;;;4.07;3.70;;;;;;;3.21;100.00;62332.41;5068283;28;20210;-77
2021/12/11 06:14:41;;;;;;;3.42;3.13;;;;;;;3.36;100.00;62342.81;5069075;28;20395;-77
2021/12/11 06:17:10;;;;;;;3.13;2.92;;;;;;;3.17;100.00;62318.25;5071471;28;20201;-79
2021/12/11 06:19:38;;;;;;;3.17;2.97;;;;;;;3.27;100.00;62335.56;5066288;28;20217;-79
2021/12/11 06:22:05;;;;;;;2.95;2.75;;;;;;;3.23;100.00;62329.44;5062640;28;20266;-78
2021/12/11 06:24:34;;;;;;;3.83;3.38;;;;;;;3.32;100.00;62341.22;5067325;28;20224;-79
2021/12/11 06:27:01;;;;;;;3.92;3.65;;;;;;;3.41;100.00;62347.97;5068294;28;20205;-77
2021/12/11 06:29:28;;;;;;;5.85;5.35;;;;;;;3.40;100.00;62346.91;5067953;28;20281;-78
2021/12/11 06:31:56;;;;;;;4.90;4.50;;;;;;;3.55;100.00;62362.34;5079763;28;20224;-78
2021/12/11 06:34:24;;;;;;;6.95;6.15;;;;;;;3.68;100.00;62377.19;5069648;28;20232;-78
2021/12/11 06:36:51;;;;;;;5.82;5.20;;;;;;;3.60;100.00;62363.94;5075305;28;20244;-78
2021/12/11 06:39:23;;;;;;;5.82;5.25;;;;;;;3.63;100.00;62370.06;5063610;28;20279;-78
2021/12/11 06:41:56;;;;;;;6.72;4.72;;;;;;;3.81;100.00;62388.06;5068880;28;20204;-78
2021/12/11 06:44:27;;;;;;;4.97;4.57;;;;;;;3.82;100.00;62394.63;5068403;28;20263;-79
2021/12/11 06:46:54;;;;;;;4.93;4.15;;;;;;;3.77;100.00;62381.44;5066871;28;20198;-79
2021/12/11 06:49:24;;;;;;;4.97;4.10;;;;;;;3.93;100.00;62397.88;5067491;28;20288;-78
2021/12/11 06:51:53;;;;;;;5.90;4.40;;;;;;;4.06;100.00;62416.28;5066956;28;20197;-78
2021/12/11 06:54:20;;;;;;;4.70;4.28;;;;;;;3.89;100.00;62396.81;5062944;28;20545;-78
2021/12/11 06:56:47;;;;;;;5.13;4.47;;;;;;;4.11;100.00;62421.94;5068250;28;20201;-78
2021/12/11 06:59:16;;;;;;;5.85;5.25;;;;;;;4.22;100.00;62430.22;5066802;28;20227;-78
2021/12/11 07:01:43;;;;;;;7.63;6.28;;;;;;;4.20;100.00;62428.69;5063058;28;20209;-80
2021/12/11 07:04:11;;;;;;;8.73;5.80;;;;;;;4.25;100.00;62430.78;5058060;28;20221;-79
2021/12/11 07:06:41;;;;;;;8.30;6.18;;;;;;;4.29;100.00;62437.44;5063114;28;20210;-78
2021/12/11 07:09:10;;;;;;;9.75;5.90;;;;;;;4.29;100.00;62437.44;5056088;28;20240;-78
2021/12/11 07:11:40;;;;;;;7.72;5.97;;;;;;;4.31;100.00;62436.97;5066486;28;20197;-78
2021/12/11 07:14:08;;;;;;;8.93;5.88;;;;;;;4.29;100.00;62437.44;5063283;28;20237;-78
2021/12/11 07:16:37;;;;;;;7.90;6.00;;;;;;;4.36;100.00;62445.16;5057914;28;20204;-78
2021/12/11 07:32:34;;;;;;;7.60;6.88;;;;;;;4.27;100.00;62435.38;5059065;28;20233;-79
2021/12/11 07:35:01;;;;;;;5.85;5.35;;;;;;;4.34;100.00;62443.09;5062540;28;20201;-79
2021/12/11 07:37:28;;;;;;;11.35;9.32;;;;;;;4.58;100.00;62469.81;5058442;28;20428;-79
2021/12/11 07:39:54;;;;;;;8.00;5.30;;;;;;;4.59;100.00;62468.31;5065781;28;20251;-77
2021/12/11 07:42:21;;;;;;;5.25;4.28;;;;;;;4.55;100.00;62466.72;5063951;28;20194;-77
2021/12/11 07:44:48;;;;;;;5.30;4.50;;;;;;;4.68;100.00;62478.09;5065133;28;20208;-79
2021/12/11 07:47:15;;;;;;;3.97;3.22;;;;;;;4.78;100.00;62487.84;5063761;28;20205;-78
2021/12/11 07:49:43;;;;;;;3.53;3.20;;;;;;;4.98;100.00;62508.47;5064827;28;20235;-78
2021/12/11 07:52:10;;;;;;;4.65;3.58;;;;;;;4.90;100.00;62497.69;5065272;28;20202;-78
2021/12/11 07:54:37;;;;;;;5.18;4.68;;;;;;;4.94;100.00;62504.34;5065991;28;20537;-77
2021/12/11 07:57:04;;;;;;;4.43;4.03;;;;;;;5.00;100.00;62513.06;5066935;28;20216;-78
2021/12/11 07:59:31;;;;;;;5.15;4.45;;;;;;;5.07;100.00;62517.72;5065328;28;20225;-78
2021/12/11 08:01:58;;;;;;;4.07;3.78;;;;;;;5.14;100.00;62524.94;5065541;28;20205;-80
2021/12/11 08:04:25;;;;;;;5.88;4.97;;;;;;;5.06;100.00;62516.69;5064509;28;20225;-78
2021/12/11 08:06:53;;;;;;;9.65;5.53;;;;;;;5.06;100.00;62521.22;5062275;28;20490;-77
2021/12/11 08:09:22;;;;;;;18.98;11.65;;;;;;;5.21;100.00;62529.63;5062932;28;20217;-78
2021/12/11 08:11:50;;;;;;;27.65;15.57;;;;;;;5.37;100.00;62550.63;5061842;28;20223;-78
2021/12/11 08:14:18;;;;;;;13.05;8.73;;;;;;;5.35;100.00;62546.56;5061300;28;20249;-78
2021/12/11 08:16:47;;;;;;;10.70;6.70;;;;;;;5.51;100.00;62567.56;5064029;28;20197;-78
2021/12/11 08:19:17;;;;;;;5.68;5.03;;;;;;;5.51;100.00;62563.03;5064935;28;20258;-77
2021/12/11 08:21:44;;;;;;;5.18;4.68;;;;;;;5.63;100.00;62572.38;5064091;28;21101;-78
2021/12/11 08:24:13;;;;;;;4.72;4.32;;;;;;;5.79;100.00;62596.44;5063323;28;20259;-77
2021/12/11 08:26:41;;;;;;;96.13;52.65;;;;;;;5.97;100.00;62604.88;5062699;28;20217;-78
2021/12/11 08:29:11;;;;;;;14.15;10.80;;;;;;;6.01;100.00;62619.13;5065612;28;20217;-78
2021/12/11 08:31:38;;;;;;;4.38;4.10;;;;;;;6.23;100.00;62636.75;5064108;28;20197;-78
2021/12/11 08:34:06;;;;;;;5.57;4.30;;;;;;;6.28;100.00;62641.88;5065032;28;20232;-77
2021/12/11 08:36:33;;;;;;;5.63;3.92;;;;;;;6.30;100.00;62643.97;5063596;28;20209;-78
2021/12/11 08:39:00;;;;;;;4.28;3.50;;;;;;;6.45;100.00;62656.91;5062272;28;20217;-77
2021/12/11 08:41:29;;;;;;;4.90;4.20;;;;;;;6.62;100.00;62679.50;5064833;28;20470;-78
2021/12/11 08:44:04;;;;;;;5.22;3.95;;;;;;;6.65;100.00;62679.53;5065101;28;20280;-79
2021/12/11 08:46:33;;;;;;;4.53;4.22;;;;;;;6.58;100.00;62672.84;5066968;28;20207;-78
2021/12/11 08:49:06;;;;;;;5.20;4.80;;;;;;;6.73;100.00;62690.31;5071330;28;20244;-79
2021/12/11 08:51:37;;;;;;;6.25;4.28;;;;;;;6.78;100.00;62698.50;5084545;28;20202;-79
2021/12/11 08:54:08;;;;;;;6.95;4.60;;;;;;;6.61;100.00;62677.94;5061780;28;20229;-79
2021/12/11 08:56:40;;;;;;;7.65;4.38;;;;;;;6.79;100.00;62694.50;5061396;28;20201;-78
2021/12/11 08:59:10;;;;;;;5.13;4.55;;;;;;;6.93;100.00;62708.94;5066052;28;20221;-78
2021/12/11 09:01:41;;;;;;;4.75;4.28;;;;;;;7.08;100.00;62723.88;5066153;28;20227;-79
2021/12/11 09:04:15;;;;;;;5.03;4.63;;;;;;;7.15;100.00;62733.13;5059987;28;20255;-79
2021/12/11 09:06:49;;;;;;;4.60;4.20;;;;;;;7.01;100.00;62711.59;5054308;28;20258;-78
2021/12/11 09:09:20;;;;;;;5.07;4.57;;;;;;;7.18;100.00;62734.19;5058488;28;20269;-78
2021/12/11 09:11:53;;;;;;;6.53;5.13;;;;;;;7.32;100.00;62746.13;5069940;28;20200;-77
2021/12/11 09:14:23;;;;;;;7.15;6.45;;;;;;;7.17;100.00;62732.66;5066859;28;20242;-78
2021/12/11 09:16:55;;;;;;;5.82;4.95;;;;;;;7.19;100.00;62735.25;5063546;28;20265;-77
2021/12/11 09:19:26;;;;;;;5.65;4.43;;;;;;;7.22;100.00;62738.34;5063784;28;20244;-78
2021/12/11 09:22:01;;;;;;;7.28;4.30;;;;;;;7.21;100.00;62741.84;5076109;28;20204;-78
2021/12/11 09:24:39;;;;;;;7.38;5.40;;;;;;;7.11;100.00;62726.47;5060537;28;20221;-78
2021/12/11 09:27:12;;;;;;;7.03;5.68;;;;;;;7.16;100.00;62734.16;5068978;28;20201;-78
2021/12/11 09:29:50;;;;;;;7.05;5.35;;;;;;;7.09;100.00;62727.47;5064918;28;20193;-77
2021/12/11 09:32:20;;;;;;;7.93;6.38;;;;;;;7.31;100.00;62749.63;5064994;28;20205;-77
2021/12/11 09:34:51;;;;;;;5.43;4.97;;;;;;;7.48;100.00;62764.66;5068118;28;20217;-77
2021/12/11 09:37:17;;;;;;;6.47;5.10;;;;;;;7.44;100.00;62760.53;5067893;28;20435;-76
2021/12/11 09:39:48;;;;;;;4.32;4.00;;;;;;;7.44;100.00;62763.56;5063283;28;20209;-77
2021/12/11 09:42:15;;;;;;;5.10;4.22;;;;;;;7.61;100.00;62778.06;5060073;28;20198;-77
2021/12/11 09:44:49;;;;;;;78.60;46.80;;;;;;;7.84;100.00;62801.81;5077189;28;20201;-78
2021/12/11 09:47:20;;;;;;;5.18;4.68;;;;;;;8.00;100.00;62818.84;5069241;28;20219;-79
2021/12/11 09:49:53;;;;;;;4.75;3.92;;;;;;;8.16;100.00;62832.31;5062633;28;20206;-78
2021/12/11 09:52:24;;;;;;;4.93;4.35;;;;;;;8.28;100.00;62844.22;5066443;28;20220;-77
2021/12/11 09:54:54;;;;;;;7.05;5.28;;;;;;;8.24;100.00;62842.59;5063891;28;20236;-76
2021/12/11 09:57:25;;;;;;;8.25;5.38;;;;;;;8.33;100.00;62851.91;5053695;28;20260;-78
2021/12/11 09:59:57;;;;;;;5.90;3.85;;;;;;;8.35;100.00;62859.56;5060536;28;20197;-78
2021/12/11 10:02:27;;;;;;;3.90;3.60;;;;;;;8.38;100.00;62854.53;5062237;28;20391;-77
2021/12/11 10:05:00;;;;;;;3.03;2.83;;;;;;;8.43;100.00;62862.75;5053562;28;20205;-76
2021/12/11 10:07:34;;;;;;;3.47;2.75;;;;;;;8.47;100.00;62871.97;5061813;28;20232;-78
2021/12/11 10:10:14;;;;;;;3.00;2.75;;;;;;;8.60;100.00;62882.84;5072124;28;20209;-77
2021/12/11 10:12:46;;;;;;;2.28;2.15;;;;;;;8.48;100.00;62862.84;5053045;28;20225;-76
2021/12/11 10:15:17;;;;;;;1.83;1.73;;;;;;;8.58;100.00;62880.25;5063216;28;20263;-76
2021/12/11 10:17:49;;;;;;;2.47;1.95;;;;;;;8.40;100.00;62864.72;5064652;28;20225;-79
2021/12/11 10:20:22;;;;;;;2.45;2.03;;;;;;;8.64;100.00;62881.91;5066129;28;20380;-77
2021/12/11 10:22:51;;;;;;;1.98;1.20;;;;;;;8.70;100.00;62890.63;5060340;28;20225;-77
2021/12/11 10:25:22;;;;;;;1.55;1.52;;;;;;;8.79;100.00;62899.41;5050252;28;20197;-77
2021/12/11 10:27:50;;;;;;;1.70;1.60;;;;;;;8.82;100.00;62905.56;5057462;28;20278;-77
2021/12/11 10:30:22;;;;;;;1.67;1.20;;;;;;;8.84;100.00;62904.59;5060144;28;20259;-77
2021/12/11 10:32:50;;;;;;;4.20;2.28;;;;;;;8.68;100.00;62888.06;5060469;28;20647;-77
2021/12/11 10:35:20;;;;;;;3.92;3.53;;;;;;;8.70;100.00;62893.19;5055340;28;20234;-76
2021/12/11 10:37:48;;;;;;;1.50;1.40;;;;;;;8.53;100.00;62875.63;5060095;28;20218;-76
2021/12/11 10:40:19;;;;;;;1.92;1.83;;;;;;;8.55;100.00;62874.63;5052928;28;20205;-78
2021/12/11 10:42:51;;;;;;;1.77;1.58;;;;;;;8.53;100.00;62873.09;5053088;28;20260;-77
2021/12/11 10:45:21;;;;;;;2.03;1.83;;;;;;;8.52;100.00;62872.06;5062123;28;20206;-77
2021/12/11 10:47:52;;;;;;;1.55;1.45;;;;;;;8.48;100.00;62870.44;5066212;28;20225;-77
2021/12/11 10:50:24;;;;;;;2.17;1.58;;;;;;;8.47;100.00;62866.91;5065844;28;20221;-76
2021/12/11 10:52:52;;;;;;;1.35;1.35;;;;;;;8.44;100.00;62863.78;5062978;28;20235;-77
2021/12/11 10:55:22;;;;;;;2.15;2.05;;;;;;;8.40;100.00;62859.13;5064739;28;20241;-78
2021/12/11 10:57:51;;;;;;;4.75;2.10;;;;;;;8.48;100.00;62867.41;5059126;28;20225;-77
2021/12/11 11:00:25;;;;;;;4.55;3.60;;;;;;;8.55;100.00;62872.09;5065014;28;20255;-79
2021/12/11 11:02:53;;;;;;;6.57;4.80;;;;;;;8.59;100.00;62886.91;5058385;28;20415;-78
2021/12/11 11:05:24;;;;;;;4.13;3.53;;;;;;;8.49;100.00;62868.44;5065804;28;20205;-77
2021/12/11 11:07:51;;;;;;;5.95;4.75;;;;;;;8.61;100.00;62880.84;5054764;28;20221;-77
2021/12/11 11:10:21;;;;;;;3.70;3.42;;;;;;;8.53;100.00;62878.16;5065060;28;20471;-77
2021/12/11 11:12:50;;;;;;;6.85;5.18;;;;;;;8.37;100.00;62866.19;5060332;28;20221;-77
2021/12/11 11:15:23;;;;;;;5.43;5.00;;;;;;;8.44;100.00;62860.75;5051517;28;20240;-77
2021/12/11 11:17:52;;;;;;;7.82;4.50;;;;;;;8.14;100.00;62833.28;5065730;28;20221;-77
2021/12/11 11:20:22;;;;;;;5.43;4.22;;;;;;;7.90;100.00;62815.59;5065129;28;20220;-77
2021/12/11 11:22:49;;;;;;;5.57;4.38;;;;;;;7.92;100.00;62815.66;5063315;28;20255;-77
2021/12/11 11:25:19;;;;;;;5.45;4.95;;;;;;;7.80;100.00;62800.22;5054513;28;20197;-76
2021/12/11 11:27:48;;;;;;;7.88;4.78;;;;;;;7.85;100.00;62807.91;5065350;28;20263;-77
2021/12/11 11:30:20;;;;;;;7.78;4.88;;;;;;;7.86;100.00;62803.88;5074661;28;20208;-77
2021/12/11 11:32:50;;;;;;;6.35;4.72;;;;;;;7.95;100.00;62813.16;5066673;28;20221;-77
2021/12/11 11:35:23;;;;;;;24.90;14.23;;;;;;;8.10;100.00;62831.19;5073522;28;20228;-77
2021/12/11 11:37:54;;;;;;;4.00;3.70;;;;;;;7.99;100.00;62819.81;5065096;28;20222;-77
2021/12/11 11:40:26;;;;;;;5.40;3.33;;;;;;;7.98;100.00;62821.31;5065331;28;20475;-77
2021/12/11 11:42:56;;;;;;;6.00;3.75;;;;;;;7.82;100.00;62799.72;5062947;28;20229;-76
2021/12/11 11:45:26;;;;;;;4.68;4.28;;;;;;;7.79;100.00;62799.19;5066104;28;20185;-77
2021/12/11 11:47:55;;;;;;;4.95;4.00;;;;;;;7.77;100.00;62795.09;5071868;28;20221;-77
2021/12/11 11:50:25;;;;;;;4.10;3.67;;;;;;;7.78;100.00;62798.16;5067272;28;20213;-77
2021/12/11 11:52:52;;;;;;;3.92;3.58;;;;;;;7.59;100.00;62781.06;5057938;28;20229;-77
2021/12/11 11:55:22;;;;;;;3.00;2.80;;;;;;;7.64;100.00;62783.69;5065342;28;20236;-77
2021/12/11 11:57:52;;;;;;;5.03;2.42;;;;;;;7.58;100.00;62775.47;5079031;28;20258;-76
2021/12/11 12:00:22;;;;;;;3.70;3.05;;;;;;;7.65;100.00;62782.72;5055486;28;20217;-78
2021/12/11 12:02:49;;;;;;;10.35;7.18;;;;;;;7.63;100.00;62780.63;5055457;28;20585;-77
2021/12/11 12:05:19;;;;;;;4.40;3.58;;;;;;;7.71;100.00;62790.91;5064945;28;20213;-76